sensor_id;sensor_type;location;lat;lon;timestamp;temperature;humidity
43963;DHT22;29622;45.534;9.242;2023-07-20T00:01:17;31.70;45.40
43963;DHT22;29622;45.534;9.242;2023-07-20T00:06:18;31.80;45.70
43963;DHT22;29622;45.534;9.242;2023-07-20T00:11:18;32.20;46.00
43963;DHT22;29622;45.534;9.242;2023-07-20T00:16:19;32.10;46.10
43963;DHT22;29622;45.534;9.242;2023-07-20T00:21:20;32.00;46.50
43963;DHT22;29622;45.534;9.242;2023-07-20T00:26:21;32.00;46.50
43963;DHT22;29622;45.534;9.242;2023-07-20T00:31:21;31.80;46.70
43963;DHT22;29622;45.534;9.242;2023-07-20T00:36:22;31.80;46.70
43963;DHT22;29622;45.534;9.242;2023-07-20T00:41:23;31.70;46.70
43963;DHT22;29622;45.534;9.242;2023-07-20T00:46:24;31.60;46.60
43963;DHT22;29622;45.534;9.242;2023-07-20T00:51:26;31.50;46.50
43963;DHT22;29622;45.534;9.242;2023-07-20T00:56:27;31.40;46.60
43963;DHT22;29622;45.534;9.242;2023-07-20T01:01:27;31.30;46.50
43963;DHT22;29622;45.534;9.242;2023-07-20T01:06:56;31.10;46.40
43963;DHT22;29622;45.534;9.242;2023-07-20T01:12:08;31.00;46.40
43963;DHT22;29622;45.534;9.242;2023-07-20T01:17:10;30.80;46.40
43963;DHT22;29622;45.534;9.242;2023-07-20T01:22:45;30.70;47.00
43963;DHT22;29622;45.534;9.242;2023-07-20T01:33:08;31.20;47.10
43963;DHT22;29622;45.534;9.242;2023-07-20T01:38:10;31.30;47.00
43963;DHT22;29622;45.534;9.242;2023-07-20T01:43:12;31.30;46.60
43963;DHT22;29622;45.534;9.242;2023-07-20T01:48:13;31.30;46.60
43963;DHT22;29622;45.534;9.242;2023-07-20T01:53:13;31.30;46.90
43963;DHT22;29622;45.534;9.242;2023-07-20T01:58:15;31.40;47.10
43963;DHT22;29622;45.534;9.242;2023-07-20T02:03:15;31.60;46.90
43963;DHT22;29622;45.534;9.242;2023-07-20T02:08:16;31.80;46.30
43963;DHT22;29622;45.534;9.242;2023-07-20T02:13:18;31.20;46.00
43963;DHT22;29622;45.534;9.242;2023-07-20T02:18:19;30.80;46.20
43963;DHT22;29622;45.534;9.242;2023-07-20T02:23:20;30.20;46.80
43963;DHT22;29622;45.534;9.242;2023-07-20T02:28:21;29.90;47.30
43963;DHT22;29622;45.534;9.242;2023-07-20T02:33:21;29.60;47.60
43963;DHT22;29622;45.534;9.242;2023-07-20T02:38:22;29.50;47.70
43963;DHT22;29622;45.534;9.242;2023-07-20T02:43:23;29.30;48.00
43963;DHT22;29622;45.534;9.242;2023-07-20T02:48:23;29.20;48.50
43963;DHT22;29622;45.534;9.242;2023-07-20T02:53:24;29.50;48.50
43963;DHT22;29622;45.534;9.242;2023-07-20T02:58:24;29.40;48.40
43963;DHT22;29622;45.534;9.242;2023-07-20T03:03:25;29.30;48.60
43963;DHT22;29622;45.534;9.242;2023-07-20T03:08:26;29.40;48.50
43963;DHT22;29622;45.534;9.242;2023-07-20T03:13:26;29.20;48.50
43963;DHT22;29622;45.534;9.242;2023-07-20T03:18:27;29.00;49.00
43963;DHT22;29622;45.534;9.242;2023-07-20T03:23:29;28.90;49.00
43963;DHT22;29622;45.534;9.242;2023-07-20T03:28:30;28.70;49.10
43963;DHT22;29622;45.534;9.242;2023-07-20T03:33:32;28.40;49.60
43963;DHT22;29622;45.534;9.242;2023-07-20T03:38:33;28.30;50.10
43963;DHT22;29622;45.534;9.242;2023-07-20T03:43:34;28.50;49.90
43963;DHT22;29622;45.534;9.242;2023-07-20T03:48:34;28.30;50.00
43963;DHT22;29622;45.534;9.242;2023-07-20T03:53:35;28.50;50.10
43963;DHT22;29622;45.534;9.242;2023-07-20T03:58:36;28.60;49.80
43963;DHT22;29622;45.534;9.242;2023-07-20T04:03:37;28.50;50.00
43963;DHT22;29622;45.534;9.242;2023-07-20T04:08:38;28.30;50.20
43963;DHT22;29622;45.534;9.242;2023-07-20T04:13:38;28.20;50.40
43963;DHT22;29622;45.534;9.242;2023-07-20T04:18:39;28.20;50.90
43963;DHT22;29622;45.534;9.242;2023-07-20T04:23:40;28.70;50.90
43963;DHT22;29622;45.534;9.242;2023-07-20T04:28:42;29.30;50.20
43963;DHT22;29622;45.534;9.242;2023-07-20T04:33:48;29.50;49.50
43963;DHT22;29622;45.534;9.242;2023-07-20T04:38:49;29.70;49.30
43963;DHT22;29622;45.534;9.242;2023-07-20T04:43:54;29.40;49.10
43963;DHT22;29622;45.534;9.242;2023-07-20T04:49:01;29.00;49.50
43963;DHT22;29622;45.534;9.242;2023-07-20T04:54:05;28.90;49.90
43963;DHT22;29622;45.534;9.242;2023-07-20T04:59:09;28.80;49.90
43963;DHT22;29622;45.534;9.242;2023-07-20T05:04:10;28.70;50.00
43963;DHT22;29622;45.534;9.242;2023-07-20T05:09:11;28.50;50.10
43963;DHT22;29622;45.534;9.242;2023-07-20T05:14:12;28.40;50.30
43963;DHT22;29622;45.534;9.242;2023-07-20T05:19:12;28.20;50.50
43963;DHT22;29622;45.534;9.242;2023-07-20T05:24:13;28.20;50.70
43963;DHT22;29622;45.534;9.242;2023-07-20T05:29:15;28.20;50.70
43963;DHT22;29622;45.534;9.242;2023-07-20T05:34:16;28.20;50.80
43963;DHT22;29622;45.534;9.242;2023-07-20T05:39:17;28.30;50.80
43963;DHT22;29622;45.534;9.242;2023-07-20T05:44:18;28.30;50.70
43963;DHT22;29622;45.534;9.242;2023-07-20T05:49:19;28.30;50.80
43963;DHT22;29622;45.534;9.242;2023-07-20T05:54:19;28.50;50.80
43963;DHT22;29622;45.534;9.242;2023-07-20T05:59:20;28.70;50.60
43963;DHT22;29622;45.534;9.242;2023-07-20T06:04:21;28.80;50.40
43963;DHT22;29622;45.534;9.242;2023-07-20T06:09:22;29.10;50.40
43963;DHT22;29622;45.534;9.242;2023-07-20T06:14:22;29.40;50.00
43963;DHT22;29622;45.534;9.242;2023-07-20T06:19:23;29.60;49.80
43963;DHT22;29622;45.534;9.242;2023-07-20T06:24:24;29.80;49.40
43963;DHT22;29622;45.534;9.242;2023-07-20T06:29:24;29.90;49.10
43963;DHT22;29622;45.534;9.242;2023-07-20T06:34:25;29.70;49.10
43963;DHT22;29622;45.534;9.242;2023-07-20T06:39:25;29.70;49.20
43963;DHT22;29622;45.534;9.242;2023-07-20T06:44:26;29.80;49.20
43963;DHT22;29622;45.534;9.242;2023-07-20T06:49:28;30.00;49.20
43963;DHT22;29622;45.534;9.242;2023-07-20T06:54:28;30.00;48.70
43963;DHT22;29622;45.534;9.242;2023-07-20T06:59:29;29.90;48.50
43963;DHT22;29622;45.534;9.242;2023-07-20T07:04:30;29.80;48.50
43963;DHT22;29622;45.534;9.242;2023-07-20T07:09:31;29.60;48.40
43963;DHT22;29622;45.534;9.242;2023-07-20T07:14:31;29.30;48.70
43963;DHT22;29622;45.534;9.242;2023-07-20T07:19:32;29.20;48.90
43963;DHT22;29622;45.534;9.242;2023-07-20T07:24:32;29.10;49.00
43963;DHT22;29622;45.534;9.242;2023-07-20T07:29:34;29.20;49.10
43963;DHT22;29622;45.534;9.242;2023-07-20T07:34:35;29.40;48.80
43963;DHT22;29622;45.534;9.242;2023-07-20T07:39:35;29.50;48.90
43963;DHT22;29622;45.534;9.242;2023-07-20T07:44:36;29.50;48.50
43963;DHT22;29622;45.534;9.242;2023-07-20T07:49:36;29.60;48.30
43963;DHT22;29622;45.534;9.242;2023-07-20T08:00:03;29.70;48.10
43963;DHT22;29622;45.534;9.242;2023-07-20T08:05:05;29.90;48.20
43963;DHT22;29622;45.534;9.242;2023-07-20T08:10:06;30.20;47.80
43963;DHT22;29622;45.534;9.242;2023-07-20T08:15:10;30.30;47.60
43963;DHT22;29622;45.534;9.242;2023-07-20T08:20:13;30.60;47.40
43963;DHT22;29622;45.534;9.242;2023-07-20T08:25:13;30.50;46.80
43963;DHT22;29622;45.534;9.242;2023-07-20T08:30:14;30.40;47.10
43963;DHT22;29622;45.534;9.242;2023-07-20T08:35:15;30.50;47.60
43963;DHT22;29622;45.534;9.242;2023-07-20T08:40:16;30.60;46.70
43963;DHT22;29622;45.534;9.242;2023-07-20T08:45:17;30.60;46.50
43963;DHT22;29622;45.534;9.242;2023-07-20T08:50:19;30.60;46.50
43963;DHT22;29622;45.534;9.242;2023-07-20T08:55:21;30.60;46.20
43963;DHT22;29622;45.534;9.242;2023-07-20T09:00:24;30.70;45.80
43963;DHT22;29622;45.534;9.242;2023-07-20T09:05:25;30.80;45.50
43963;DHT22;29622;45.534;9.242;2023-07-20T09:10:25;30.70;45.10
43963;DHT22;29622;45.534;9.242;2023-07-20T09:15:26;30.60;45.50
43963;DHT22;29622;45.534;9.242;2023-07-20T09:20:27;30.80;45.90
43963;DHT22;29622;45.534;9.242;2023-07-20T09:25:30;31.10;46.00
43963;DHT22;29622;45.534;9.242;2023-07-20T09:30:32;31.30;45.40
43963;DHT22;29622;45.534;9.242;2023-07-20T09:35:32;31.40;44.90
43963;DHT22;29622;45.534;9.242;2023-07-20T09:40:37;31.50;44.50
43963;DHT22;29622;45.534;9.242;2023-07-20T09:45:40;31.40;44.20
43963;DHT22;29622;45.534;9.242;2023-07-20T09:50:43;31.40;44.40
43963;DHT22;29622;45.534;9.242;2023-07-20T09:55:48;31.50;44.20
43963;DHT22;29622;45.534;9.242;2023-07-20T10:00:51;31.60;44.10
43963;DHT22;29622;45.534;9.242;2023-07-20T10:05:56;31.70;43.80
43963;DHT22;29622;45.534;9.242;2023-07-20T10:10:59;31.80;44.10
43963;DHT22;29622;45.534;9.242;2023-07-20T10:16:14;32.00;43.70
43963;DHT22;29622;45.534;9.242;2023-07-20T10:21:20;32.00;43.70
43963;DHT22;29622;45.534;9.242;2023-07-20T10:26:23;32.10;43.70
43963;DHT22;29622;45.534;9.242;2023-07-20T10:31:25;32.10;43.30
43963;DHT22;29622;45.534;9.242;2023-07-20T10:36:29;32.10;43.60
43963;DHT22;29622;45.534;9.242;2023-07-20T10:41:34;32.30;44.10
43963;DHT22;29622;45.534;9.242;2023-07-20T10:46:45;32.50;44.00
43963;DHT22;29622;45.534;9.242;2023-07-20T10:51:48;32.60;43.80
43963;DHT22;29622;45.534;9.242;2023-07-20T10:56:49;32.80;43.80
43963;DHT22;29622;45.534;9.242;2023-07-20T11:01:57;33.00;43.80
43963;DHT22;29622;45.534;9.242;2023-07-20T11:07:01;33.10;43.70
43963;DHT22;29622;45.534;9.242;2023-07-20T11:12:17;33.30;43.70
43963;DHT22;29622;45.534;9.242;2023-07-20T11:17:18;33.40;43.70
43963;DHT22;29622;45.534;9.242;2023-07-20T11:22:22;33.40;43.60
43963;DHT22;29622;45.534;9.242;2023-07-20T11:27:23;33.50;43.60
43963;DHT22;29622;45.534;9.242;2023-07-20T11:32:24;33.60;43.50
43963;DHT22;29622;45.534;9.242;2023-07-20T11:37:25;33.70;43.60
43963;DHT22;29622;45.534;9.242;2023-07-20T11:42:26;33.80;43.20
43963;DHT22;29622;45.534;9.242;2023-07-20T11:47:29;33.90;42.90
43963;DHT22;29622;45.534;9.242;2023-07-20T11:52:30;34.00;42.90
43963;DHT22;29622;45.534;9.242;2023-07-20T11:57:31;34.00;42.90
43963;DHT22;29622;45.534;9.242;2023-07-20T12:02:32;34.00;42.80
43963;DHT22;29622;45.534;9.242;2023-07-20T12:07:36;34.10;42.60
43963;DHT22;29622;45.534;9.242;2023-07-20T12:12:41;34.10;42.60
43963;DHT22;29622;45.534;9.242;2023-07-20T12:17:46;34.20;42.80
43963;DHT22;29622;45.534;9.242;2023-07-20T12:22:49;34.20;42.50
43963;DHT22;29622;45.534;9.242;2023-07-20T12:27:49;34.30;42.40
43963;DHT22;29622;45.534;9.242;2023-07-20T12:32:50;34.30;42.50
43963;DHT22;29622;45.534;9.242;2023-07-20T12:37:51;34.40;43.10
43963;DHT22;29622;45.534;9.242;2023-07-20T12:42:52;34.40;42.40
43963;DHT22;29622;45.534;9.242;2023-07-20T12:47:52;34.50;42.30
43963;DHT22;29622;45.534;9.242;2023-07-20T12:52:53;34.50;42.10
43963;DHT22;29622;45.534;9.242;2023-07-20T12:57:54;34.60;42.30
43963;DHT22;29622;45.534;9.242;2023-07-20T13:02:55;34.70;42.50
43963;DHT22;29622;45.534;9.242;2023-07-20T13:07:56;34.80;42.60
43963;DHT22;29622;45.534;9.242;2023-07-20T13:12:56;34.90;42.60
43963;DHT22;29622;45.534;9.242;2023-07-20T13:17:58;34.90;42.30
43963;DHT22;29622;45.534;9.242;2023-07-20T13:22:59;35.00;42.40
43963;DHT22;29622;45.534;9.242;2023-07-20T13:27:59;35.00;42.10
43963;DHT22;29622;45.534;9.242;2023-07-20T13:33:00;35.00;41.40
43963;DHT22;29622;45.534;9.242;2023-07-20T13:38:01;35.10;41.70
43963;DHT22;29622;45.534;9.242;2023-07-20T13:43:01;35.10;41.50
43963;DHT22;29622;45.534;9.242;2023-07-20T13:48:02;35.10;41.30
43963;DHT22;29622;45.534;9.242;2023-07-20T13:53:03;35.20;41.50
43963;DHT22;29622;45.534;9.242;2023-07-20T13:58:03;35.20;41.70
43963;DHT22;29622;45.534;9.242;2023-07-20T14:03:04;35.30;41.90
43963;DHT22;29622;45.534;9.242;2023-07-20T14:08:04;35.30;42.00
43963;DHT22;29622;45.534;9.242;2023-07-20T14:13:05;35.40;41.80
43963;DHT22;29622;45.534;9.242;2023-07-20T14:18:06;35.50;41.70
43963;DHT22;29622;45.534;9.242;2023-07-20T14:23:07;35.60;41.30
43963;DHT22;29622;45.534;9.242;2023-07-20T14:28:07;35.70;40.70
43963;DHT22;29622;45.534;9.242;2023-07-20T14:33:08;35.90;40.40
43963;DHT22;29622;45.534;9.242;2023-07-20T14:38:09;36.00;40.50
43963;DHT22;29622;45.534;9.242;2023-07-20T14:43:10;36.00;40.60
43963;DHT22;29622;45.534;9.242;2023-07-20T14:48:11;36.00;40.50
43963;DHT22;29622;45.534;9.242;2023-07-20T14:53:13;36.10;39.90
43963;DHT22;29622;45.534;9.242;2023-07-20T14:58:13;36.20;39.60
43963;DHT22;29622;45.534;9.242;2023-07-20T15:03:14;36.40;39.40
43963;DHT22;29622;45.534;9.242;2023-07-20T15:08:14;36.60;39.20
43963;DHT22;29622;45.534;9.242;2023-07-20T15:13:15;36.70;39.40
43963;DHT22;29622;45.534;9.242;2023-07-20T15:18:16;36.80;39.60
43963;DHT22;29622;45.534;9.242;2023-07-20T15:23:16;36.70;39.70
43963;DHT22;29622;45.534;9.242;2023-07-20T15:28:17;36.70;39.40
43963;DHT22;29622;45.534;9.242;2023-07-20T15:33:18;36.70;39.50
43963;DHT22;29622;45.534;9.242;2023-07-20T15:38:18;36.80;39.60
43963;DHT22;29622;45.534;9.242;2023-07-20T15:43:20;36.90;39.70
43963;DHT22;29622;45.534;9.242;2023-07-20T15:48:20;37.00;39.80
43963;DHT22;29622;45.534;9.242;2023-07-20T15:53:21;37.10;39.30
43963;DHT22;29622;45.534;9.242;2023-07-20T15:58:22;37.20;38.30
43963;DHT22;29622;45.534;9.242;2023-07-20T16:03:23;37.40;38.40
43963;DHT22;29622;45.534;9.242;2023-07-20T16:08:26;37.50;37.90
43963;DHT22;29622;45.534;9.242;2023-07-20T16:13:27;37.60;37.70
43963;DHT22;29622;45.534;9.242;2023-07-20T16:18:28;37.70;37.50
43963;DHT22;29622;45.534;9.242;2023-07-20T16:23:29;37.80;37.40
43963;DHT22;29622;45.534;9.242;2023-07-20T16:28:30;37.80;37.20
43963;DHT22;29622;45.534;9.242;2023-07-20T16:33:31;37.80;36.70
43963;DHT22;29622;45.534;9.242;2023-07-20T16:38:31;37.70;36.30
43963;DHT22;29622;45.534;9.242;2023-07-20T16:43:32;37.70;36.40
43963;DHT22;29622;45.534;9.242;2023-07-20T16:48:33;37.70;36.60
43963;DHT22;29622;45.534;9.242;2023-07-20T16:53:34;37.70;36.70
43963;DHT22;29622;45.534;9.242;2023-07-20T16:58:35;37.60;37.30
43963;DHT22;29622;45.534;9.242;2023-07-20T17:03:36;37.60;36.70
43963;DHT22;29622;45.534;9.242;2023-07-20T17:08:36;37.60;36.70
43963;DHT22;29622;45.534;9.242;2023-07-20T17:13:37;37.50;37.40
43963;DHT22;29622;45.534;9.242;2023-07-20T17:18:39;37.40;37.90
43963;DHT22;29622;45.534;9.242;2023-07-20T17:23:39;37.30;38.10
43963;DHT22;29622;45.534;9.242;2023-07-20T17:28:40;37.30;37.70
43963;DHT22;29622;45.534;9.242;2023-07-20T17:33:41;37.30;37.90
43963;DHT22;29622;45.534;9.242;2023-07-20T17:38:41;37.30;37.40
43963;DHT22;29622;45.534;9.242;2023-07-20T17:43:42;37.10;37.00
43963;DHT22;29622;45.534;9.242;2023-07-20T17:48:42;37.10;37.40
43963;DHT22;29622;45.534;9.242;2023-07-20T17:53:43;37.00;38.00
43963;DHT22;29622;45.534;9.242;2023-07-20T17:58:44;36.80;38.10
43963;DHT22;29622;45.534;9.242;2023-07-20T18:03:44;36.70;38.20
43963;DHT22;29622;45.534;9.242;2023-07-20T18:08:45;36.60;38.50
43963;DHT22;29622;45.534;9.242;2023-07-20T18:13:46;36.50;38.70
43963;DHT22;29622;45.534;9.242;2023-07-20T18:18:47;36.40;38.50
43963;DHT22;29622;45.534;9.242;2023-07-20T18:23:48;36.20;38.40
43963;DHT22;29622;45.534;9.242;2023-07-20T18:28:51;36.20;38.50
43963;DHT22;29622;45.534;9.242;2023-07-20T18:33:53;36.00;38.90
43963;DHT22;29622;45.534;9.242;2023-07-20T18:38:54;35.90;39.50
43963;DHT22;29622;45.534;9.242;2023-07-20T18:43:55;35.90;39.80
43963;DHT22;29622;45.534;9.242;2023-07-20T18:48:56;35.70;39.30
43963;DHT22;29622;45.534;9.242;2023-07-20T18:53:56;35.50;39.40
43963;DHT22;29622;45.534;9.242;2023-07-20T18:58:57;35.30;39.30
43963;DHT22;29622;45.534;9.242;2023-07-20T19:03:57;35.20;39.50
43963;DHT22;29622;45.534;9.242;2023-07-20T19:08:58;35.00;39.90
43963;DHT22;29622;45.534;9.242;2023-07-20T19:13:59;34.80;40.00
43963;DHT22;29622;45.534;9.242;2023-07-20T19:18:59;34.60;40.00
43963;DHT22;29622;45.534;9.242;2023-07-20T19:24:00;34.50;40.10
43963;DHT22;29622;45.534;9.242;2023-07-20T19:29:00;34.30;40.30
43963;DHT22;29622;45.534;9.242;2023-07-20T19:34:02;34.20;40.40
43963;DHT22;29622;45.534;9.242;2023-07-20T19:39:02;34.10;40.80
43963;DHT22;29622;45.534;9.242;2023-07-20T19:44:04;34.00;41.40
43963;DHT22;29622;45.534;9.242;2023-07-20T19:49:05;33.90;41.70
43963;DHT22;29622;45.534;9.242;2023-07-20T19:54:05;33.80;42.20
43963;DHT22;29622;45.534;9.242;2023-07-20T19:59:06;33.90;42.60
43963;DHT22;29622;45.534;9.242;2023-07-20T20:04:07;33.80;42.70
43963;DHT22;29622;45.534;9.242;2023-07-20T20:09:07;33.80;42.90
43963;DHT22;29622;45.534;9.242;2023-07-20T20:14:08;33.80;42.60
43963;DHT22;29622;45.534;9.242;2023-07-20T20:19:10;33.60;42.40
43963;DHT22;29622;45.534;9.242;2023-07-20T20:24:11;33.30;42.10
43963;DHT22;29622;45.534;9.242;2023-07-20T20:29:11;33.10;42.00
43963;DHT22;29622;45.534;9.242;2023-07-20T20:34:12;32.90;42.00
43963;DHT22;29622;45.534;9.242;2023-07-20T20:39:12;32.70;42.30
43963;DHT22;29622;45.534;9.242;2023-07-20T20:44:14;32.60;42.20
43963;DHT22;29622;45.534;9.242;2023-07-20T20:49:18;32.60;42.20
43963;DHT22;29622;45.534;9.242;2023-07-20T20:54:18;32.40;42.30
43963;DHT22;29622;45.534;9.242;2023-07-20T20:59:19;32.30;42.70
43963;DHT22;29622;45.534;9.242;2023-07-20T21:04:20;32.30;42.40
43963;DHT22;29622;45.534;9.242;2023-07-20T21:09:20;32.30;42.00
43963;DHT22;29622;45.534;9.242;2023-07-20T21:14:21;31.90;41.90
43963;DHT22;29622;45.534;9.242;2023-07-20T21:19:23;31.70;42.20
43963;DHT22;29622;45.534;9.242;2023-07-20T21:24:24;31.40;42.30
43963;DHT22;29622;45.534;9.242;2023-07-20T21:29:24;31.00;42.50
43963;DHT22;29622;45.534;9.242;2023-07-20T21:34:25;30.80;43.10
43963;DHT22;29622;45.534;9.242;2023-07-20T21:39:26;31.00;42.80
43963;DHT22;29622;45.534;9.242;2023-07-20T21:44:26;30.90;42.70
43963;DHT22;29622;45.534;9.242;2023-07-20T21:49:27;30.80;43.10
43963;DHT22;29622;45.534;9.242;2023-07-20T21:54:28;30.90;43.50
43963;DHT22;29622;45.534;9.242;2023-07-20T21:59:28;30.70;43.40
43963;DHT22;29622;45.534;9.242;2023-07-20T22:04:29;30.70;43.50
43963;DHT22;29622;45.534;9.242;2023-07-20T22:09:30;30.50;43.40
43963;DHT22;29622;45.534;9.242;2023-07-20T22:14:30;30.40;43.40
43963;DHT22;29622;45.534;9.242;2023-07-20T22:19:31;30.30;43.40
43963;DHT22;29622;45.534;9.242;2023-07-20T22:24:33;30.20;43.60
43963;DHT22;29622;45.534;9.242;2023-07-20T22:29:35;30.00;43.60
43963;DHT22;29622;45.534;9.242;2023-07-20T22:34:36;29.90;43.60
43963;DHT22;29622;45.534;9.242;2023-07-20T22:39:36;29.80;43.40
43963;DHT22;29622;45.534;9.242;2023-07-20T22:44:37;29.90;43.70
43963;DHT22;29622;45.534;9.242;2023-07-20T22:49:37;30.00;43.50
43963;DHT22;29622;45.534;9.242;2023-07-20T22:54:38;30.10;43.30
43963;DHT22;29622;45.534;9.242;2023-07-20T22:59:39;30.10;43.80
43963;DHT22;29622;45.534;9.242;2023-07-20T23:04:39;30.40;44.20
43963;DHT22;29622;45.534;9.242;2023-07-20T23:09:42;30.50;43.30
43963;DHT22;29622;45.534;9.242;2023-07-20T23:14:44;30.30;43.00
43963;DHT22;29622;45.534;9.242;2023-07-20T23:19:44;30.10;43.00
43963;DHT22;29622;45.534;9.242;2023-07-20T23:24:45;30.00;43.10
43963;DHT22;29622;45.534;9.242;2023-07-20T23:29:46;29.90;43.10
43963;DHT22;29622;45.534;9.242;2023-07-20T23:34:47;29.80;43.30
43963;DHT22;29622;45.534;9.242;2023-07-20T23:39:47;29.70;43.50
43963;DHT22;29622;45.534;9.242;2023-07-20T23:44:50;30.00;44.30
43963;DHT22;29622;45.534;9.242;2023-07-20T23:49:50;30.20;44.00
43963;DHT22;29622;45.534;9.242;2023-07-20T23:54:51;30.20;43.60
43963;DHT22;29622;45.534;9.242;2023-07-20T23:59:51;30.20;43.60
